sensor_id;sensor_type;location;lat;lon;timestamp;P1;durP1;ratioP1;P2;durP2;ratioP2
49900;SDS011;35789;48.414;12.768;2023-04-01T00:00:00;4.1;;;0.6;;
49900;SDS011;35789;48.414;12.768;2023-04-01T00:05:00;4.1;;;0.6;;
49900;SDS011;35789;48.414;12.768;2023-04-01T00:10:00;4.1;;;0.6;;
49900;SDS011;35789;48.414;12.768;2023-04-01T00:15:01;4.1;;;0.6;;
49900;SDS011;35789;48.414;12.768;2023-04-01T00:20:00;4.1;;;0.6;;
49900;SDS011;35789;48.414;12.768;2023-04-01T00:25:00;2.1;;;0.6;;
49900;SDS011;35789;48.414;12.768;2023-04-01T00:30:00;2.1;;;0.6;;
49900;SDS011;35789;48.414;12.768;2023-04-01T00:35:01;2.1;;;0.6;;
49900;SDS011;35789;48.414;12.768;2023-04-01T00:40:00;2.1;;;0.6;;
49900;SDS011;35789;48.414;12.768;2023-04-01T00:50:00;2.1;;;0.6;;
49900;SDS011;35789;48.414;12.768;2023-04-01T00:55:01;3.8;;;0.5;;
49900;SDS011;35789;48.414;12.768;2023-04-01T01:00:00;3.8;;;0.5;;
49900;SDS011;35789;48.414;12.768;2023-04-01T01:05:00;3.8;;;0.5;;
49900;SDS011;35789;48.414;12.768;2023-04-01T01:10:03;3.8;;;0.5;;
49900;SDS011;35789;48.414;12.768;2023-04-01T01:15:08;3.8;;;0.5;;
49900;SDS011;35789;48.414;12.768;2023-04-01T01:20:15;3.8;;;0.5;;
49900;SDS011;35789;48.414;12.768;2023-04-01T01:25:14;1.5;;;0.3;;
49900;SDS011;35789;48.414;12.768;2023-04-01T01:30:13;1.5;;;0.3;;
49900;SDS011;35789;48.414;12.768;2023-04-01T01:35:14;1.5;;;0.3;;
49900;SDS011;35789;48.414;12.768;2023-04-01T01:40:04;1.5;;;0.3;;
49900;SDS011;35789;48.414;12.768;2023-04-01T01:45:02;1.5;;;0.3;;
49900;SDS011;35789;48.414;12.768;2023-04-01T01:50:00;1.5;;;0.3;;
49900;SDS011;35789;48.414;12.768;2023-04-01T01:55:00;3.3;;;0.4;;
49900;SDS011;35789;48.414;12.768;2023-04-01T02:00:05;3.3;;;0.4;;
49900;SDS011;35789;48.414;12.768;2023-04-01T02:05:01;3.3;;;0.4;;
49900;SDS011;35789;48.414;12.768;2023-04-01T02:10:00;3.3;;;0.4;;
49900;SDS011;35789;48.414;12.768;2023-04-01T02:15:03;3.3;;;0.4;;
49900;SDS011;35789;48.414;12.768;2023-04-01T02:20:04;3.3;;;0.4;;
49900;SDS011;35789;48.414;12.768;2023-04-01T02:25:04;2.6;;;0.5;;
49900;SDS011;35789;48.414;12.768;2023-04-01T02:30:00;2.6;;;0.5;;
49900;SDS011;35789;48.414;12.768;2023-04-01T02:35:01;2.6;;;0.5;;
49900;SDS011;35789;48.414;12.768;2023-04-01T02:40:01;2.6;;;0.5;;
49900;SDS011;35789;48.414;12.768;2023-04-01T02:45:00;2.6;;;0.5;;
49900;SDS011;35789;48.414;12.768;2023-04-01T02:50:00;2.6;;;0.5;;
49900;SDS011;35789;48.414;12.768;2023-04-01T02:55:00;2.2;;;0.4;;
49900;SDS011;35789;48.414;12.768;2023-04-01T03:00:00;2.2;;;0.4;;
49900;SDS011;35789;48.414;12.768;2023-04-01T03:05:00;2.2;;;0.4;;
49900;SDS011;35789;48.414;12.768;2023-04-01T03:10:00;2.2;;;0.4;;
49900;SDS011;35789;48.414;12.768;2023-04-01T03:15:00;2.2;;;0.4;;
49900;SDS011;35789;48.414;12.768;2023-04-01T03:20:00;2.2;;;0.4;;
49900;SDS011;35789;48.414;12.768;2023-04-01T03:25:00;3.8;;;1.3;;
49900;SDS011;35789;48.414;12.768;2023-04-01T03:30:00;3.8;;;1.3;;
49900;SDS011;35789;48.414;12.768;2023-04-01T03:35:00;3.8;;;1.3;;
49900;SDS011;35789;48.414;12.768;2023-04-01T03:40:00;3.8;;;1.3;;
49900;SDS011;35789;48.414;12.768;2023-04-01T03:45:00;3.8;;;1.3;;
49900;SDS011;35789;48.414;12.768;2023-04-01T03:50:00;3.8;;;1.3;;
49900;SDS011;35789;48.414;12.768;2023-04-01T03:55:00;1.4;;;0.2;;
49900;SDS011;35789;48.414;12.768;2023-04-01T04:00:00;1.4;;;0.2;;
49900;SDS011;35789;48.414;12.768;2023-04-01T04:05:00;1.4;;;0.2;;
49900;SDS011;35789;48.414;12.768;2023-04-01T04:10:00;1.4;;;0.2;;
49900;SDS011;35789;48.414;12.768;2023-04-01T04:15:00;1.4;;;0.2;;
49900;SDS011;35789;48.414;12.768;2023-04-01T04:20:00;1.4;;;0.2;;
49900;SDS011;35789;48.414;12.768;2023-04-01T04:25:00;1.4;;;0.3;;
49900;SDS011;35789;48.414;12.768;2023-04-01T04:30:00;1.4;;;0.3;;
49900;SDS011;35789;48.414;12.768;2023-04-01T04:35:00;1.4;;;0.3;;
49900;SDS011;35789;48.414;12.768;2023-04-01T04:40:00;1.4;;;0.3;;
49900;SDS011;35789;48.414;12.768;2023-04-01T04:45:00;1.4;;;0.3;;
49900;SDS011;35789;48.414;12.768;2023-04-01T04:50:00;1.4;;;0.3;;
49900;SDS011;35789;48.414;12.768;2023-04-01T04:55:00;1.7;;;0.2;;
49900;SDS011;35789;48.414;12.768;2023-04-01T05:00:00;1.7;;;0.2;;
49900;SDS011;35789;48.414;12.768;2023-04-01T05:05:00;1.7;;;0.2;;
49900;SDS011;35789;48.414;12.768;2023-04-01T05:10:00;1.7;;;0.2;;
49900;SDS011;35789;48.414;12.768;2023-04-01T05:15:00;1.7;;;0.2;;
49900;SDS011;35789;48.414;12.768;2023-04-01T05:20:00;1.7;;;0.2;;
49900;SDS011;35789;48.414;12.768;2023-04-01T05:25:00;1.6;;;0.2;;
49900;SDS011;35789;48.414;12.768;2023-04-01T05:30:00;1.6;;;0.2;;
49900;SDS011;35789;48.414;12.768;2023-04-01T05:35:00;1.6;;;0.2;;
49900;SDS011;35789;48.414;12.768;2023-04-01T05:40:00;1.6;;;0.2;;
49900;SDS011;35789;48.414;12.768;2023-04-01T05:45:00;1.6;;;0.2;;
49900;SDS011;35789;48.414;12.768;2023-04-01T05:50:00;1.6;;;0.2;;
49900;SDS011;35789;48.414;12.768;2023-04-01T05:55:00;1.6;;;0.3;;
49900;SDS011;35789;48.414;12.768;2023-04-01T06:00:00;1.6;;;0.3;;
49900;SDS011;35789;48.414;12.768;2023-04-01T06:05:08;1.6;;;0.3;;
49900;SDS011;35789;48.414;12.768;2023-04-01T06:10:00;1.6;;;0.3;;
49900;SDS011;35789;48.414;12.768;2023-04-01T06:15:07;1.6;;;0.3;;
49900;SDS011;35789;48.414;12.768;2023-04-01T06:20:04;1.6;;;0.3;;
49900;SDS011;35789;48.414;12.768;2023-04-01T06:25:14;1.9;;;0.4;;
49900;SDS011;35789;48.414;12.768;2023-04-01T06:30:07;1.9;;;0.4;;
49900;SDS011;35789;48.414;12.768;2023-04-01T06:35:17;1.9;;;0.4;;
49900;SDS011;35789;48.414;12.768;2023-04-01T06:40:16;1.9;;;0.4;;
49900;SDS011;35789;48.414;12.768;2023-04-01T06:45:07;1.9;;;0.4;;
49900;SDS011;35789;48.414;12.768;2023-04-01T06:50:04;1.9;;;0.4;;
49900;SDS011;35789;48.414;12.768;2023-04-01T06:55:02;1.8;;;0.4;;
49900;SDS011;35789;48.414;12.768;2023-04-01T07:00:03;1.8;;;0.4;;
49900;SDS011;35789;48.414;12.768;2023-04-01T07:05:01;1.8;;;0.4;;
49900;SDS011;35789;48.414;12.768;2023-04-01T07:10:05;1.8;;;0.4;;
49900;SDS011;35789;48.414;12.768;2023-04-01T07:15:05;1.8;;;0.4;;
49900;SDS011;35789;48.414;12.768;2023-04-01T07:20:05;1.8;;;0.4;;
49900;SDS011;35789;48.414;12.768;2023-04-01T07:25:05;1.8;;;0.4;;
49900;SDS011;35789;48.414;12.768;2023-04-01T07:30:02;1.8;;;0.4;;
49900;SDS011;35789;48.414;12.768;2023-04-01T07:35:06;1.8;;;0.4;;
49900;SDS011;35789;48.414;12.768;2023-04-01T07:40:14;1.8;;;0.4;;
49900;SDS011;35789;48.414;12.768;2023-04-01T07:45:07;1.8;;;0.4;;
49900;SDS011;35789;48.414;12.768;2023-04-01T07:50:08;1.8;;;0.4;;
49900;SDS011;35789;48.414;12.768;2023-04-01T07:55:07;1.8;;;0.4;;
49900;SDS011;35789;48.414;12.768;2023-04-01T08:00:07;1.8;;;0.4;;
49900;SDS011;35789;48.414;12.768;2023-04-01T08:05:06;1.8;;;0.4;;
49900;SDS011;35789;48.414;12.768;2023-04-01T08:10:07;1.8;;;0.4;;
49900;SDS011;35789;48.414;12.768;2023-04-01T08:15:07;1.8;;;0.4;;
49900;SDS011;35789;48.414;12.768;2023-04-01T08:20:11;1.8;;;0.4;;
49900;SDS011;35789;48.414;12.768;2023-04-01T08:25:02;3.0;;;0.4;;
49900;SDS011;35789;48.414;12.768;2023-04-01T08:30:15;3.0;;;0.4;;
49900;SDS011;35789;48.414;12.768;2023-04-01T08:35:07;3.0;;;0.4;;
49900;SDS011;35789;48.414;12.768;2023-04-01T08:40:12;3.0;;;0.4;;
49900;SDS011;35789;48.414;12.768;2023-04-01T08:45:14;3.0;;;0.4;;
49900;SDS011;35789;48.414;12.768;2023-04-01T08:55:12;1.9;;;0.4;;
49900;SDS011;35789;48.414;12.768;2023-04-01T09:00:11;1.9;;;0.4;;
49900;SDS011;35789;48.414;12.768;2023-04-01T09:05:17;1.9;;;0.4;;
49900;SDS011;35789;48.414;12.768;2023-04-01T09:10:10;1.9;;;0.4;;
49900;SDS011;35789;48.414;12.768;2023-04-01T09:15:20;1.9;;;0.4;;
49900;SDS011;35789;48.414;12.768;2023-04-01T09:20:13;1.9;;;0.4;;
49900;SDS011;35789;48.414;12.768;2023-04-01T09:30:19;1.9;;;0.4;;
49900;SDS011;35789;48.414;12.768;2023-04-01T09:35:05;1.9;;;0.4;;
49900;SDS011;35789;48.414;12.768;2023-04-01T09:40:13;1.9;;;0.4;;
49900;SDS011;35789;48.414;12.768;2023-04-01T09:45:04;1.9;;;0.4;;
49900;SDS011;35789;48.414;12.768;2023-04-01T09:55:13;3.0;;;0.9;;
49900;SDS011;35789;48.414;12.768;2023-04-01T10:00:15;3.0;;;0.9;;
49900;SDS011;35789;48.414;12.768;2023-04-01T10:05:18;3.0;;;0.9;;
49900;SDS011;35789;48.414;12.768;2023-04-01T10:20:12;3.0;;;0.9;;
49900;SDS011;35789;48.414;12.768;2023-04-01T10:35:17;2.0;;;0.5;;
49900;SDS011;35789;48.414;12.768;2023-04-01T10:40:21;2.0;;;0.5;;
49900;SDS011;35789;48.414;12.768;2023-04-01T10:55:20;2.1;;;0.6;;
49900;SDS011;35789;48.414;12.768;2023-04-01T11:00:17;2.1;;;0.6;;
49900;SDS011;35789;48.414;12.768;2023-04-01T11:10:18;2.1;;;0.6;;
49900;SDS011;35789;48.414;12.768;2023-04-01T11:25:20;2.1;;;0.5;;
49900;SDS011;35789;48.414;12.768;2023-04-01T11:30:12;2.1;;;0.5;;
49900;SDS011;35789;48.414;12.768;2023-04-01T11:35:17;2.1;;;0.5;;
49900;SDS011;35789;48.414;12.768;2023-04-01T11:40:08;2.1;;;0.5;;
49900;SDS011;35789;48.414;12.768;2023-04-01T11:45:12;2.1;;;0.5;;
49900;SDS011;35789;48.414;12.768;2023-04-01T11:50:15;1.9;;;0.4;;
49900;SDS011;35789;48.414;12.768;2023-04-01T11:55:15;1.9;;;0.4;;
49900;SDS011;35789;48.414;12.768;2023-04-01T12:00:14;1.9;;;0.4;;
49900;SDS011;35789;48.414;12.768;2023-04-01T12:05:17;1.9;;;0.4;;
49900;SDS011;35789;48.414;12.768;2023-04-01T12:10:11;1.9;;;0.4;;
49900;SDS011;35789;48.414;12.768;2023-04-01T12:15:11;1.9;;;0.4;;
49900;SDS011;35789;48.414;12.768;2023-04-01T12:20:13;1.9;;;0.4;;
49900;SDS011;35789;48.414;12.768;2023-04-01T12:25:14;1.9;;;0.4;;
49900;SDS011;35789;48.414;12.768;2023-04-01T12:30:10;1.9;;;0.4;;
49900;SDS011;35789;48.414;12.768;2023-04-01T12:35:16;1.9;;;0.4;;
49900;SDS011;35789;48.414;12.768;2023-04-01T12:40:14;1.9;;;0.4;;
49900;SDS011;35789;48.414;12.768;2023-04-01T12:45:15;1.9;;;0.4;;
49900;SDS011;35789;48.414;12.768;2023-04-01T12:50:15;2.0;;;0.5;;
49900;SDS011;35789;48.414;12.768;2023-04-01T12:55:21;2.0;;;0.5;;
49900;SDS011;35789;48.414;12.768;2023-04-01T13:00:12;2.0;;;0.5;;
49900;SDS011;35789;48.414;12.768;2023-04-01T13:05:16;2.0;;;0.5;;
49900;SDS011;35789;48.414;12.768;2023-04-01T13:10:07;2.0;;;0.5;;
49900;SDS011;35789;48.414;12.768;2023-04-01T13:15:12;2.0;;;0.5;;
49900;SDS011;35789;48.414;12.768;2023-04-01T13:20:06;1.7;;;0.4;;
49900;SDS011;35789;48.414;12.768;2023-04-01T13:25:05;1.7;;;0.4;;
49900;SDS011;35789;48.414;12.768;2023-04-01T13:30:13;1.7;;;0.4;;
49900;SDS011;35789;48.414;12.768;2023-04-01T13:35:11;1.7;;;0.4;;
49900;SDS011;35789;48.414;12.768;2023-04-01T13:40:14;1.7;;;0.4;;
49900;SDS011;35789;48.414;12.768;2023-04-01T13:45:02;1.7;;;0.4;;
49900;SDS011;35789;48.414;12.768;2023-04-01T13:50:16;1.9;;;0.5;;
49900;SDS011;35789;48.414;12.768;2023-04-01T13:55:05;1.9;;;0.5;;
49900;SDS011;35789;48.414;12.768;2023-04-01T14:10:07;1.9;;;0.5;;
49900;SDS011;35789;48.414;12.768;2023-04-01T14:20:15;2.3;;;0.5;;
49900;SDS011;35789;48.414;12.768;2023-04-01T14:30:14;2.3;;;0.5;;
49900;SDS011;35789;48.414;12.768;2023-04-01T14:35:15;2.3;;;0.5;;
49900;SDS011;35789;48.414;12.768;2023-04-01T14:40:16;2.3;;;0.5;;
49900;SDS011;35789;48.414;12.768;2023-04-01T14:45:20;2.3;;;0.5;;
49900;SDS011;35789;48.414;12.768;2023-04-01T14:50:07;3.6;;;1.2;;
49900;SDS011;35789;48.414;12.768;2023-04-01T14:55:01;3.6;;;1.2;;
49900;SDS011;35789;48.414;12.768;2023-04-01T15:00:12;3.6;;;1.2;;
49900;SDS011;35789;48.414;12.768;2023-04-01T15:05:11;3.6;;;1.2;;
49900;SDS011;35789;48.414;12.768;2023-04-01T15:10:09;3.6;;;1.2;;
49900;SDS011;35789;48.414;12.768;2023-04-01T15:15:14;3.6;;;1.2;;
49900;SDS011;35789;48.414;12.768;2023-04-01T15:20:14;4.5;;;1.1;;
49900;SDS011;35789;48.414;12.768;2023-04-01T15:25:18;4.5;;;1.1;;
49900;SDS011;35789;48.414;12.768;2023-04-01T15:30:14;4.5;;;1.1;;
49900;SDS011;35789;48.414;12.768;2023-04-01T15:35:13;4.5;;;1.1;;
49900;SDS011;35789;48.414;12.768;2023-04-01T15:40:11;4.5;;;1.1;;
49900;SDS011;35789;48.414;12.768;2023-04-01T15:45:11;4.5;;;1.1;;
49900;SDS011;35789;48.414;12.768;2023-04-01T15:55:16;2.7;;;0.9;;
49900;SDS011;35789;48.414;12.768;2023-04-01T16:00:10;2.7;;;0.9;;
49900;SDS011;35789;48.414;12.768;2023-04-01T16:05:07;2.7;;;0.9;;
49900;SDS011;35789;48.414;12.768;2023-04-01T16:10:09;2.7;;;0.9;;
49900;SDS011;35789;48.414;12.768;2023-04-01T16:15:09;2.7;;;0.9;;
49900;SDS011;35789;48.414;12.768;2023-04-01T16:20:02;2.4;;;0.6;;
49900;SDS011;35789;48.414;12.768;2023-04-01T16:30:09;2.4;;;0.6;;
49900;SDS011;35789;48.414;12.768;2023-04-01T16:35:12;2.4;;;0.6;;
49900;SDS011;35789;48.414;12.768;2023-04-01T16:40:10;2.4;;;0.6;;
49900;SDS011;35789;48.414;12.768;2023-04-01T16:45:15;2.4;;;0.6;;
49900;SDS011;35789;48.414;12.768;2023-04-01T16:50:12;3.0;;;1.1;;
49900;SDS011;35789;48.414;12.768;2023-04-01T16:55:03;3.0;;;1.1;;
49900;SDS011;35789;48.414;12.768;2023-04-01T17:00:10;3.0;;;1.1;;
49900;SDS011;35789;48.414;12.768;2023-04-01T17:05:03;3.0;;;1.1;;
49900;SDS011;35789;48.414;12.768;2023-04-01T17:10:13;3.0;;;1.1;;
49900;SDS011;35789;48.414;12.768;2023-04-01T17:15:05;3.0;;;1.1;;
49900;SDS011;35789;48.414;12.768;2023-04-01T17:20:12;3.7;;;1.4;;
49900;SDS011;35789;48.414;12.768;2023-04-01T17:25:10;3.7;;;1.4;;
49900;SDS011;35789;48.414;12.768;2023-04-01T17:30:13;3.7;;;1.4;;
49900;SDS011;35789;48.414;12.768;2023-04-01T17:35:02;3.7;;;1.4;;
49900;SDS011;35789;48.414;12.768;2023-04-01T17:40:15;3.7;;;1.4;;
49900;SDS011;35789;48.414;12.768;2023-04-01T17:45:05;3.7;;;1.4;;
49900;SDS011;35789;48.414;12.768;2023-04-01T17:50:09;3.1;;;0.9;;
49900;SDS011;35789;48.414;12.768;2023-04-01T17:55:18;3.1;;;0.9;;
49900;SDS011;35789;48.414;12.768;2023-04-01T18:00:12;3.1;;;0.9;;
49900;SDS011;35789;48.414;12.768;2023-04-01T18:05:17;3.1;;;0.9;;
49900;SDS011;35789;48.414;12.768;2023-04-01T18:10:11;3.1;;;0.9;;
49900;SDS011;35789;48.414;12.768;2023-04-01T18:15:13;3.1;;;0.9;;
49900;SDS011;35789;48.414;12.768;2023-04-01T18:20:11;2.0;;;0.4;;
49900;SDS011;35789;48.414;12.768;2023-04-01T18:25:10;2.0;;;0.4;;
49900;SDS011;35789;48.414;12.768;2023-04-01T18:30:03;2.0;;;0.4;;
49900;SDS011;35789;48.414;12.768;2023-04-01T18:40:11;2.0;;;0.4;;
49900;SDS011;35789;48.414;12.768;2023-04-01T18:45:10;2.0;;;0.4;;
49900;SDS011;35789;48.414;12.768;2023-04-01T18:50:07;2.6;;;0.6;;
49900;SDS011;35789;48.414;12.768;2023-04-01T19:00:05;2.6;;;0.6;;
49900;SDS011;35789;48.414;12.768;2023-04-01T19:05:07;2.6;;;0.6;;
49900;SDS011;35789;48.414;12.768;2023-04-01T19:10:13;2.6;;;0.6;;
49900;SDS011;35789;48.414;12.768;2023-04-01T19:15:09;2.6;;;0.6;;
49900;SDS011;35789;48.414;12.768;2023-04-01T19:20:08;2.9;;;0.8;;
49900;SDS011;35789;48.414;12.768;2023-04-01T19:30:14;2.9;;;0.8;;
49900;SDS011;35789;48.414;12.768;2023-04-01T19:35:10;2.9;;;0.8;;
49900;SDS011;35789;48.414;12.768;2023-04-01T19:40:15;2.9;;;0.8;;
49900;SDS011;35789;48.414;12.768;2023-04-01T19:45:11;2.9;;;0.8;;
49900;SDS011;35789;48.414;12.768;2023-04-01T19:50:04;3.4;;;1.0;;
49900;SDS011;35789;48.414;12.768;2023-04-01T19:55:03;3.4;;;1.0;;
49900;SDS011;35789;48.414;12.768;2023-04-01T20:00:07;3.4;;;1.0;;
49900;SDS011;35789;48.414;12.768;2023-04-01T20:05:10;3.4;;;1.0;;
49900;SDS011;35789;48.414;12.768;2023-04-01T20:10:06;3.4;;;1.0;;
49900;SDS011;35789;48.414;12.768;2023-04-01T20:15:03;3.4;;;1.0;;
49900;SDS011;35789;48.414;12.768;2023-04-01T20:20:03;3.1;;;0.7;;
49900;SDS011;35789;48.414;12.768;2023-04-01T20:25:05;3.1;;;0.7;;
49900;SDS011;35789;48.414;12.768;2023-04-01T20:35:12;3.1;;;0.7;;
49900;SDS011;35789;48.414;12.768;2023-04-01T20:45:16;3.1;;;0.7;;
49900;SDS011;35789;48.414;12.768;2023-04-01T20:50:07;2.1;;;0.5;;
49900;SDS011;35789;48.414;12.768;2023-04-01T20:55:19;2.1;;;0.5;;
49900;SDS011;35789;48.414;12.768;2023-04-01T21:00:16;2.1;;;0.5;;
49900;SDS011;35789;48.414;12.768;2023-04-01T21:05:21;2.1;;;0.5;;
49900;SDS011;35789;48.414;12.768;2023-04-01T21:10:12;2.1;;;0.5;;
49900;SDS011;35789;48.414;12.768;2023-04-01T21:15:15;2.1;;;0.5;;
49900;SDS011;35789;48.414;12.768;2023-04-01T21:20:13;2.2;;;0.5;;
49900;SDS011;35789;48.414;12.768;2023-04-01T21:30:14;2.2;;;0.5;;
49900;SDS011;35789;48.414;12.768;2023-04-01T21:35:06;2.2;;;0.5;;
49900;SDS011;35789;48.414;12.768;2023-04-01T21:40:14;2.2;;;0.5;;
49900;SDS011;35789;48.414;12.768;2023-04-01T21:45:13;2.2;;;0.5;;
49900;SDS011;35789;48.414;12.768;2023-04-01T21:50:15;1.8;;;0.4;;
49900;SDS011;35789;48.414;12.768;2023-04-01T21:55:18;1.8;;;0.4;;
49900;SDS011;35789;48.414;12.768;2023-04-01T22:00:09;1.8;;;0.4;;
49900;SDS011;35789;48.414;12.768;2023-04-01T22:05:06;1.8;;;0.4;;
49900;SDS011;35789;48.414;12.768;2023-04-01T22:10:05;1.8;;;0.4;;
49900;SDS011;35789;48.414;12.768;2023-04-01T22:15:08;1.8;;;0.4;;
49900;SDS011;35789;48.414;12.768;2023-04-01T22:20:11;2.9;;;0.8;;
49900;SDS011;35789;48.414;12.768;2023-04-01T22:25:04;2.9;;;0.8;;
49900;SDS011;35789;48.414;12.768;2023-04-01T22:30:08;2.9;;;0.8;;
49900;SDS011;35789;48.414;12.768;2023-04-01T22:35:06;2.9;;;0.8;;
49900;SDS011;35789;48.414;12.768;2023-04-01T22:40:12;2.9;;;0.8;;
49900;SDS011;35789;48.414;12.768;2023-04-01T22:45:10;2.9;;;0.8;;
49900;SDS011;35789;48.414;12.768;2023-04-01T22:50:07;3.0;;;0.9;;
49900;SDS011;35789;48.414;12.768;2023-04-01T22:55:04;3.0;;;0.9;;
49900;SDS011;35789;48.414;12.768;2023-04-01T23:00:04;3.0;;;0.9;;
49900;SDS011;35789;48.414;12.768;2023-04-01T23:05:04;3.0;;;0.9;;
49900;SDS011;35789;48.414;12.768;2023-04-01T23:10:02;3.0;;;0.9;;
49900;SDS011;35789;48.414;12.768;2023-04-01T23:15:02;3.0;;;0.9;;
49900;SDS011;35789;48.414;12.768;2023-04-01T23:20:10;1.9;;;0.4;;
49900;SDS011;35789;48.414;12.768;2023-04-01T23:25:11;1.9;;;0.4;;
49900;SDS011;35789;48.414;12.768;2023-04-01T23:30:00;1.9;;;0.4;;
49900;SDS011;35789;48.414;12.768;2023-04-01T23:35:00;1.9;;;0.4;;
49900;SDS011;35789;48.414;12.768;2023-04-01T23:40:00;1.9;;;0.4;;
49900;SDS011;35789;48.414;12.768;2023-04-01T23:45:03;1.9;;;0.4;;
49900;SDS011;35789;48.414;12.768;2023-04-01T23:50:04;1.8;;;0.4;;
49900;SDS011;35789;48.414;12.768;2023-04-01T23:55:03;1.8;;;0.4;;
